createdAt,value
2022-10-01T00:00:01.477Z,65.8
2022-10-01T00:05:02.060Z,65.4
2022-10-01T00:10:01.555Z,65.2
2022-10-01T00:15:06.753Z,65.0
2022-10-01T00:20:01.489Z,64.8
2022-10-01T00:25:01.905Z,64.8
2022-10-01T00:30:01.540Z,65.0
2022-10-01T00:35:03.116Z,63.9
2022-10-01T00:40:06.504Z,63.2
2022-10-01T00:45:01.941Z,63.8
2022-10-01T00:50:01.521Z,62.8
2022-10-01T00:55:06.624Z,62.0
2022-10-01T01:00:11.477Z,62.5
2022-10-01T01:05:06.661Z,63.2
2022-10-01T01:10:06.461Z,62.3
2022-10-01T01:15:01.914Z,62.1
2022-10-01T01:25:07.963Z,62.4
2022-10-01T01:40:01.424Z,62.8
2022-10-01T01:45:01.604Z,62.4
2022-10-01T01:50:01.706Z,61.5
2022-10-01T01:55:01.440Z,60.4
2022-10-01T02:00:02.410Z,59.6
2022-10-01T02:05:01.845Z,59.4
2022-10-01T02:10:04.839Z,59.5
2022-10-01T02:25:01.493Z,67.4
2022-10-01T02:30:06.269Z,63.8
2022-10-01T02:35:01.357Z,63.9
2022-10-01T02:40:04.291Z,62.2
2022-10-01T02:50:01.355Z,60.1
2022-10-01T02:55:01.409Z,60.0
2022-10-01T03:00:02.393Z,58.6
2022-10-01T03:05:01.401Z,59.0
2022-10-01T03:10:01.294Z,58.4
2022-10-01T03:15:02.091Z,58.9
2022-10-01T03:20:01.435Z,59.4
2022-10-01T03:25:01.391Z,59.8
2022-10-01T03:30:01.618Z,60.2
2022-10-01T03:35:06.454Z,60.5
2022-10-01T03:40:06.629Z,59.9
2022-10-01T03:45:01.533Z,59.2
2022-10-01T03:50:01.998Z,59.0
2022-10-01T03:55:02.069Z,58.5
2022-10-01T04:05:01.467Z,58.6
2022-10-01T04:10:06.419Z,58.5
2022-10-01T04:20:01.345Z,58.3
2022-10-01T04:25:01.472Z,59.0
2022-10-01T04:30:05.462Z,58.8
2022-10-01T04:35:01.428Z,58.9
2022-10-01T04:40:01.335Z,59.6
2022-10-01T04:45:01.422Z,60.4
2022-10-01T04:50:01.956Z,61.5
2022-10-01T05:05:01.404Z,67.5
2022-10-01T05:10:01.354Z,69.6
2022-10-01T05:20:02.346Z,70.4
2022-10-01T05:25:01.851Z,70.9
2022-10-01T05:35:01.449Z,70.6
2022-10-01T05:40:01.309Z,71.8
2022-10-01T05:45:01.667Z,72.3
2022-10-01T05:50:01.341Z,73.8
2022-10-01T06:05:01.379Z,72.5
2022-10-01T06:10:01.333Z,73.6
2022-10-01T06:15:01.317Z,73.0
2022-10-01T06:20:01.385Z,72.5
2022-10-01T06:25:05.376Z,73.9
2022-10-01T06:30:01.432Z,75.8
2022-10-01T06:40:01.391Z,73.3
2022-10-01T06:50:01.570Z,71.4
2022-10-01T06:55:01.597Z,68.8
2022-10-01T07:00:01.267Z,67.7
2022-10-01T07:05:01.461Z,66.6
2022-10-01T07:10:01.448Z,65.0
2022-10-01T07:20:01.263Z,63.6
2022-10-01T07:25:01.420Z,63.4
2022-10-01T07:30:01.255Z,63.2
2022-10-01T07:35:01.699Z,63.8
2022-10-01T07:40:07.767Z,64.2
2022-10-01T07:45:01.444Z,70.2
2022-10-01T07:50:02.420Z,70.4
2022-10-01T07:55:02.295Z,70.1
2022-10-01T08:00:01.343Z,69.2
2022-10-01T08:05:02.440Z,68.3
2022-10-01T08:10:01.778Z,61.9
2022-10-01T08:15:01.388Z,61.6
2022-10-01T08:20:06.755Z,61.4
2022-10-01T08:35:01.402Z,64.8
2022-10-01T08:40:01.401Z,64.7
2022-10-01T08:50:01.332Z,65.5
2022-10-01T08:55:06.482Z,62.8
2022-10-01T09:05:03.152Z,63.3
2022-10-01T09:25:02.115Z,62.2
2022-10-01T09:35:04.880Z,64.5
2022-10-01T09:40:02.205Z,62.5
2022-10-01T09:50:01.631Z,62.6
2022-10-01T09:55:03.904Z,62.7
2022-10-01T10:00:01.785Z,62.8
2022-10-01T10:05:01.799Z,64.5
2022-10-01T10:10:01.650Z,65.2
2022-10-01T10:25:01.509Z,78.2
2022-10-01T10:30:01.992Z,78.8
2022-10-01T10:35:03.802Z,78.5
2022-10-01T10:40:01.397Z,76.7
2022-10-01T10:50:01.360Z,67.2
2022-10-01T11:00:01.403Z,61.8
2022-10-01T11:25:01.354Z,53.2
2022-10-01T11:50:04.980Z,41.1
2022-10-01T11:55:07.082Z,40.2
2022-10-01T12:00:01.302Z,39.1
2022-10-01T12:05:01.445Z,38.4
2022-10-01T12:10:02.589Z,37.4
2022-10-01T12:15:07.233Z,37.4
2022-10-01T12:20:01.333Z,37.5
2022-10-01T12:25:01.916Z,38.2
2022-10-01T12:30:01.231Z,38.3
2022-10-01T12:45:01.193Z,35.0
2022-10-01T13:05:02.442Z,50.4
2022-10-01T13:10:01.406Z,45.4
2022-10-01T13:15:01.574Z,42.9
2022-10-01T13:20:01.399Z,42.9
2022-10-01T13:25:06.384Z,42.2
2022-10-01T13:50:01.963Z,51.4
2022-10-01T14:20:06.270Z,47.7
2022-10-01T14:35:01.301Z,49.5
2022-10-01T15:00:01.774Z,37.4
2022-10-01T15:05:08.159Z,37.5
2022-10-01T15:10:02.560Z,37.5
2022-10-01T15:25:01.858Z,39.1
2022-10-01T15:45:02.945Z,48.4
2022-10-01T15:50:01.791Z,48.8
2022-10-01T16:00:01.738Z,48.8
2022-10-01T16:10:01.597Z,47.4
2022-10-01T16:25:02.795Z,49.4
2022-10-01T16:45:01.060Z,50.4
2022-10-01T16:50:00.861Z,47.7
2022-10-01T16:55:05.983Z,47.3
2022-10-01T17:15:01.553Z,69.2
2022-10-01T17:20:02.399Z,58.5
2022-10-01T17:30:01.495Z,55.3
2022-10-01T17:35:01.873Z,53.9
2022-10-01T17:40:01.450Z,54.0
2022-10-01T17:55:01.403Z,49.9
2022-10-01T18:00:01.370Z,50.3
2022-10-01T18:05:02.423Z,51.0
2022-10-01T18:10:01.401Z,50.6
2022-10-01T18:15:01.531Z,52.1
2022-10-01T18:20:02.273Z,53.6
2022-10-01T18:25:01.594Z,55.5
2022-10-01T18:30:02.068Z,56.4
2022-10-01T18:35:01.549Z,58.1
2022-10-01T18:40:02.330Z,59.1
2022-10-01T18:45:01.369Z,60.6
2022-10-01T18:50:01.306Z,60.0
2022-10-01T19:00:04.709Z,59.6
2022-10-01T19:05:02.449Z,58.2
2022-10-01T19:25:01.614Z,59.0
2022-10-01T19:30:02.535Z,59.1
2022-10-01T19:35:02.528Z,59.1
2022-10-01T20:00:05.895Z,63.5
2022-10-01T20:05:06.069Z,62.1
2022-10-01T20:10:06.741Z,62.0
2022-10-01T20:15:00.979Z,61.5
2022-10-01T20:20:01.017Z,60.9
2022-10-01T20:35:01.612Z,61.2
2022-10-01T20:55:01.820Z,68.4
2022-10-01T21:00:01.682Z,72.5
2022-10-01T21:05:01.785Z,72.7
2022-10-01T21:10:01.711Z,70.2
2022-10-01T21:15:02.192Z,69.0
2022-10-01T21:20:01.696Z,67.7
2022-10-01T21:35:01.413Z,74.4
2022-10-01T21:55:02.764Z,75.2
2022-10-01T22:00:01.467Z,75.3
2022-10-01T22:05:07.616Z,77.1
2022-10-01T22:10:01.474Z,76.6
2022-10-01T22:15:01.650Z,77.5
2022-10-01T22:20:01.524Z,78.9
2022-10-01T22:25:07.032Z,79.6
2022-10-01T22:30:01.460Z,80.6
2022-10-01T22:35:01.669Z,81.3
2022-10-01T22:40:01.443Z,80.0
2022-10-01T22:45:01.502Z,78.5
2022-10-01T22:50:01.559Z,77.4
2022-10-01T22:55:01.581Z,75.0
2022-10-01T23:15:01.561Z,68.6
2022-10-01T23:20:01.327Z,74.0
2022-10-01T23:25:07.380Z,75.4
2022-10-01T23:45:02.139Z,82.0
